createdAt,value
2017-07-28T00:00:55.658Z,0
2017-07-28T00:01:55.949Z,0
2017-07-28T00:02:55.339Z,0
2017-07-28T00:03:55.952Z,0
2017-07-28T00:04:55.647Z,0
2017-07-28T00:05:55.621Z,0
2017-07-28T00:06:55.945Z,0
2017-07-28T00:07:55.940Z,0
2017-07-28T00:08:55.919Z,0
2017-07-28T00:09:55.928Z,0
2017-07-28T00:10:55.940Z,0
2017-07-28T00:11:55.595Z,0
2017-07-28T00:12:55.917Z,0
2017-07-28T00:13:55.907Z,0
2017-07-28T00:14:55.903Z,0
2017-07-28T00:15:55.588Z,0
2017-07-28T00:16:55.907Z,0
2017-07-28T00:17:55.890Z,0
2017-07-28T00:18:55.904Z,0
2017-07-28T00:19:55.903Z,0
2017-07-28T00:20:55.873Z,0
2017-07-28T00:21:55.878Z,0
2017-07-28T00:22:55.851Z,0
2017-07-28T00:23:55.878Z,0
2017-07-28T00:24:55.854Z,0
2017-07-28T00:25:55.893Z,0
2017-07-28T00:26:55.545Z,0
2017-07-28T00:27:55.871Z,0
2017-07-28T00:28:55.530Z,0
2017-07-28T00:29:55.858Z,0
2017-07-28T00:30:55.846Z,0
2017-07-28T00:31:55.843Z,0
2017-07-28T00:32:55.849Z,0
2017-07-28T00:33:55.844Z,0
2017-07-28T00:34:55.850Z,0
2017-07-28T00:35:55.827Z,0
2017-07-28T00:36:55.823Z,0
2017-07-28T00:37:55.828Z,0
2017-07-28T00:38:55.814Z,0
2017-07-28T00:39:55.827Z,0
2017-07-28T00:40:55.811Z,0
2017-07-28T00:41:55.815Z,0
2017-07-28T00:42:55.816Z,0
2017-07-28T00:43:55.823Z,0
2017-07-28T00:44:55.793Z,0
2017-07-28T00:45:55.791Z,0
2017-07-28T00:46:55.808Z,0
2017-07-28T00:47:55.768Z,0
2017-07-28T00:48:55.466Z,0
2017-07-28T00:49:55.757Z,0
2017-07-28T00:50:55.793Z,0
2017-07-28T00:51:55.474Z,0
2017-07-28T00:52:55.775Z,0
2017-07-28T00:53:55.760Z,0
2017-07-28T00:54:55.447Z,0
2017-07-28T00:55:55.766Z,0
2017-07-28T00:56:55.457Z,0
2017-07-28T00:57:55.432Z,0
2017-07-28T00:58:55.760Z,0
2017-07-28T00:59:55.728Z,0
2017-07-28T01:00:55.766Z,0
2017-07-28T01:01:55.441Z,0
2017-07-28T01:02:55.765Z,0
2017-07-28T01:03:55.714Z,0
2017-07-28T01:04:55.737Z,0
2017-07-28T01:05:55.411Z,0
2017-07-28T01:06:55.741Z,0
2017-07-28T01:07:55.722Z,0
2017-07-28T01:08:55.709Z,0
2017-07-28T01:09:55.722Z,0
2017-07-28T01:10:55.697Z,0
2017-07-28T01:11:55.093Z,0
2017-07-28T01:12:55.689Z,0
2017-07-28T01:13:55.723Z,0
2017-07-28T01:14:55.672Z,0
2017-07-28T01:15:55.705Z,0
2017-07-28T01:16:55.372Z,0
2017-07-28T01:17:55.692Z,0
2017-07-28T01:18:55.665Z,0
2017-07-28T01:19:55.697Z,0
2017-07-28T01:20:55.665Z,0
2017-07-28T01:21:55.374Z,0
2017-07-28T01:22:55.665Z,0
2017-07-28T01:23:55.357Z,0
2017-07-28T01:24:55.656Z,0
2017-07-28T01:25:55.661Z,0
2017-07-28T01:26:55.652Z,0
2017-07-28T01:27:55.640Z,0
2017-07-28T01:28:55.652Z,0
2017-07-28T01:29:55.654Z,0
2017-07-28T01:30:55.662Z,0
2017-07-28T01:31:55.637Z,0
2017-07-28T01:32:55.632Z,0
2017-07-28T01:33:55.625Z,0
2017-07-28T01:34:55.608Z,0
2017-07-28T01:35:55.661Z,0
2017-07-28T01:36:55.616Z,0
2017-07-28T01:37:55.619Z,0
2017-07-28T01:38:55.612Z,0
2017-07-28T01:39:55.605Z,0
2017-07-28T01:40:55.595Z,0
2017-07-28T01:41:55.607Z,0
2017-07-28T01:42:55.599Z,0
2017-07-28T01:43:55.633Z,0
2017-07-28T01:44:55.593Z,0
2017-07-28T01:45:55.584Z,0
2017-07-28T01:46:55.591Z,0
2017-07-28T01:47:54.956Z,0
2017-07-28T01:48:55.572Z,0
2017-07-28T01:49:55.588Z,0
2017-07-28T01:50:55.557Z,0
2017-07-28T01:51:55.594Z,0
2017-07-28T01:52:55.560Z,0
2017-07-28T01:53:55.574Z,0
2017-07-28T01:54:55.245Z,0
2017-07-28T01:55:55.248Z,0
2017-07-28T01:56:55.549Z,0
2017-07-28T01:57:55.237Z,0
2017-07-28T01:58:55.250Z,0
2017-07-28T01:59:55.535Z,0
2017-07-28T02:00:55.549Z,0
2017-07-28T02:01:55.530Z,0
2017-07-28T02:02:55.542Z,0
2017-07-28T02:03:55.206Z,0
2017-07-28T02:04:55.525Z,0
2017-07-28T02:05:55.525Z,0
2017-07-28T02:06:55.535Z,0
2017-07-28T02:07:55.514Z,0
2017-07-28T02:08:55.500Z,0
2017-07-28T02:09:55.491Z,0
2017-07-28T02:10:55.505Z,0
2017-07-28T02:11:55.203Z,0
2017-07-28T02:12:55.482Z,0
2017-07-28T02:13:55.474Z,0
2017-07-28T02:14:55.512Z,0
2017-07-28T02:15:55.159Z,0
2017-07-28T02:16:55.174Z,0
2017-07-28T02:17:55.147Z,0
2017-07-28T02:18:54.852Z,0
2017-07-28T02:19:55.474Z,0
2017-07-28T02:20:54.850Z,0
2017-07-28T02:21:55.397Z,0
2017-07-28T02:22:55.472Z,0
2017-07-28T02:23:55.426Z,0
2017-07-28T02:24:54.827Z,0
2017-07-28T02:25:55.139Z,0
2017-07-28T02:26:55.446Z,0
2017-07-28T02:27:55.126Z,0
2017-07-28T02:28:54.812Z,0
2017-07-28T02:29:54.807Z,0
2017-07-28T02:30:55.120Z,0
2017-07-28T02:31:55.428Z,0
2017-07-28T02:32:55.418Z,0
2017-07-28T02:33:54.785Z,0
2017-07-28T02:34:55.440Z,0
2017-07-28T02:35:55.121Z,0
2017-07-28T02:36:55.413Z,0
2017-07-28T02:37:55.705Z,0
2017-07-28T02:38:55.417Z,0
2017-07-28T02:39:55.089Z,0
2017-07-28T02:40:55.396Z,0
2017-07-28T02:41:55.385Z,0
2017-07-28T02:42:55.067Z,0
2017-07-28T02:43:55.371Z,0
2017-07-28T02:44:54.756Z,0
2017-07-28T02:45:55.375Z,0
2017-07-28T02:46:55.387Z,0
2017-07-28T02:47:55.363Z,0
2017-07-28T02:48:55.382Z,0
2017-07-28T02:49:55.343Z,0
2017-07-28T02:50:55.351Z,0
2017-07-28T02:51:55.349Z,0
2017-07-28T02:52:55.366Z,0
2017-07-28T02:53:55.321Z,0
2017-07-28T02:54:55.349Z,0
2017-07-28T02:55:55.323Z,0
2017-07-28T02:56:55.342Z,0
2017-07-28T02:57:55.333Z,0
2017-07-28T02:58:55.336Z,0
2017-07-28T02:59:55.322Z,0
2017-07-28T03:00:55.010Z,0
2017-07-28T03:01:55.000Z,0
2017-07-28T03:02:55.332Z,0
2017-07-28T03:03:55.314Z,0
2017-07-28T03:04:55.009Z,0
2017-07-28T03:05:54.984Z,0
2017-07-28T03:06:55.297Z,0
2017-07-28T03:07:55.287Z,0
2017-07-28T03:08:55.306Z,0
2017-07-28T03:09:54.988Z,0
2017-07-28T03:10:54.977Z,0
2017-07-28T03:11:55.246Z,5
2017-07-28T03:12:55.255Z,5
2017-07-28T03:13:54.951Z,5
2017-07-28T03:14:55.274Z,5
2017-07-28T03:15:55.252Z,5
2017-07-28T03:16:55.244Z,5
2017-07-28T03:17:54.927Z,5
2017-07-28T03:18:55.223Z,5
2017-07-28T03:19:55.251Z,5
2017-07-28T03:20:54.927Z,10
2017-07-28T03:21:55.239Z,10
2017-07-28T03:22:54.911Z,10
2017-07-28T03:23:54.912Z,10
2017-07-28T03:24:55.213Z,15
2017-07-28T03:25:55.235Z,15
2017-07-28T03:26:55.215Z,15
2017-07-28T03:27:55.223Z,15
2017-07-28T03:28:55.205Z,15
2017-07-28T03:29:54.881Z,20
2017-07-28T03:30:54.887Z,20
2017-07-28T03:31:54.874Z,20
2017-07-28T03:32:55.178Z,25
2017-07-28T03:33:55.215Z,25
2017-07-28T03:34:54.870Z,25
2017-07-28T03:35:54.864Z,30
2017-07-28T03:36:54.546Z,30
2017-07-28T03:37:54.873Z,35
2017-07-28T03:38:54.862Z,35
2017-07-28T03:39:54.860Z,40
2017-07-28T03:40:54.825Z,45
2017-07-28T03:41:55.169Z,50
2017-07-28T03:42:55.138Z,55
2017-07-28T03:43:54.856Z,55
2017-07-28T03:44:55.156Z,55
2017-07-28T03:45:54.831Z,60
2017-07-28T03:46:55.126Z,60
2017-07-28T03:47:55.135Z,65
2017-07-28T03:48:54.831Z,65
2017-07-28T03:49:55.129Z,65
2017-07-28T03:50:55.141Z,65
2017-07-28T03:51:54.489Z,70
2017-07-28T03:52:55.104Z,70
2017-07-28T03:53:55.109Z,75
2017-07-28T03:54:55.124Z,80
2017-07-28T03:55:55.100Z,85
2017-07-28T03:56:55.117Z,90
2017-07-28T03:57:54.772Z,90
2017-07-28T03:58:55.063Z,100
2017-07-28T03:59:55.088Z,100
2017-07-28T04:00:55.105Z,100
2017-07-28T04:01:55.097Z,110
2017-07-28T04:02:55.074Z,125
2017-07-28T04:03:55.058Z,125
2017-07-28T04:04:55.057Z,130
2017-07-28T04:05:55.065Z,135
2017-07-28T04:06:55.058Z,140
2017-07-28T04:07:54.719Z,140
2017-07-28T04:08:55.056Z,135
2017-07-28T04:09:55.071Z,145
2017-07-28T04:10:54.746Z,145
2017-07-28T04:11:55.051Z,145
2017-07-28T04:12:55.004Z,145
2017-07-28T04:13:55.029Z,120
2017-07-28T04:14:55.036Z,110
2017-07-28T04:15:54.445Z,120
2017-07-28T04:16:55.018Z,130
2017-07-28T04:17:55.027Z,150
2017-07-28T04:18:55.000Z,150
2017-07-28T04:19:55.010Z,170
2017-07-28T04:20:54.701Z,200
2017-07-28T04:21:54.709Z,205
2017-07-28T04:22:55.002Z,200
2017-07-28T04:23:55.005Z,220
2017-07-28T04:24:54.987Z,235
2017-07-28T04:25:55.008Z,240
2017-07-28T04:26:55.003Z,250
2017-07-28T04:27:54.996Z,260
2017-07-28T04:28:54.971Z,260
2017-07-28T04:29:54.998Z,280
2017-07-28T04:30:54.980Z,280
2017-07-28T04:31:55.003Z,295
2017-07-28T04:32:54.984Z,305
2017-07-28T04:33:54.680Z,300
2017-07-28T04:34:54.960Z,305
2017-07-28T04:35:54.980Z,315
2017-07-28T04:36:54.982Z,320
2017-07-28T04:37:54.975Z,330
2017-07-28T04:38:54.677Z,335
2017-07-28T04:39:54.975Z,335
2017-07-28T04:40:54.990Z,340
2017-07-28T04:41:54.985Z,345
2017-07-28T04:42:54.980Z,360
2017-07-28T04:43:54.963Z,360
2017-07-28T04:44:54.989Z,370
2017-07-28T04:45:54.048Z,385
2017-07-28T04:46:54.677Z,395
2017-07-28T04:47:54.661Z,415
2017-07-28T04:48:54.354Z,430
2017-07-28T04:49:54.990Z,450
2017-07-28T04:50:54.953Z,460
2017-07-28T04:51:54.990Z,470
2017-07-28T04:52:54.968Z,415
2017-07-28T04:53:55.018Z,490
2017-07-28T04:54:54.999Z,500
2017-07-28T04:55:54.992Z,505
2017-07-28T04:56:54.974Z,520
2017-07-28T04:57:54.986Z,520
2017-07-28T04:58:55.012Z,525
2017-07-28T04:59:55.005Z,535
2017-07-28T05:00:55.008Z,535
2017-07-28T05:01:55.001Z,535
2017-07-28T05:02:55.033Z,530
2017-07-28T05:03:55.021Z,525
2017-07-28T05:04:54.697Z,515
2017-07-28T05:05:55.040Z,510
2017-07-28T05:06:55.036Z,405
2017-07-28T05:07:55.046Z,370
2017-07-28T05:08:55.047Z,375
2017-07-28T05:09:54.735Z,425
2017-07-28T05:10:55.035Z,535
2017-07-28T05:11:55.060Z,465
2017-07-28T05:12:55.084Z,455
2017-07-28T05:13:55.050Z,570
2017-07-28T05:14:55.082Z,575
2017-07-28T05:15:55.050Z,575
2017-07-28T05:16:55.101Z,590
2017-07-28T05:17:55.081Z,625
2017-07-28T05:18:55.095Z,640
2017-07-28T05:19:55.093Z,645
2017-07-28T05:20:55.107Z,670
2017-07-28T05:21:55.109Z,680
2017-07-28T05:22:55.130Z,670
2017-07-28T05:23:55.119Z,700
2017-07-28T05:24:55.137Z,690
2017-07-28T05:25:55.134Z,715
2017-07-28T05:26:55.142Z,700
2017-07-28T05:27:55.133Z,685
2017-07-28T05:28:55.171Z,645
2017-07-28T05:29:54.855Z,555
2017-07-28T05:30:54.825Z,620
2017-07-28T05:31:55.184Z,635
2017-07-28T05:32:55.168Z,390
2017-07-28T05:33:55.207Z,620
2017-07-28T05:34:55.217Z,705
2017-07-28T05:35:55.229Z,720
2017-07-28T05:36:54.620Z,735
2017-07-28T05:37:54.920Z,770
2017-07-28T05:38:55.453Z,800
2017-07-28T05:39:54.931Z,830
2017-07-28T05:40:55.235Z,840
2017-07-28T05:41:55.238Z,845
2017-07-28T05:42:54.940Z,855
2017-07-28T05:43:54.958Z,865
2017-07-28T05:44:55.267Z,890
2017-07-28T05:45:55.374Z,900
2017-07-28T05:46:54.989Z,915
2017-07-28T05:47:56.187Z,920
2017-07-28T05:48:54.999Z,920
2017-07-28T05:49:55.310Z,940
2017-07-28T05:50:55.012Z,935
2017-07-28T05:51:55.365Z,940
2017-07-28T05:52:54.734Z,950
2017-07-28T05:53:55.046Z,970
2017-07-28T05:54:55.044Z,1000
2017-07-28T05:55:55.054Z,1005
2017-07-28T05:56:55.372Z,1025
2017-07-28T05:57:55.383Z,1035
2017-07-28T05:58:55.099Z,1070
2017-07-28T05:59:55.399Z,1085
2017-07-28T06:00:55.111Z,1080
2017-07-28T06:01:55.122Z,1095
2017-07-28T06:02:55.452Z,1115
2017-07-28T06:03:55.451Z,1120
2017-07-28T06:04:55.450Z,1125
2017-07-28T06:05:55.173Z,1125
2017-07-28T06:06:55.174Z,1130
2017-07-28T06:07:55.512Z,1125
2017-07-28T06:08:55.520Z,1140
2017-07-28T06:09:54.901Z,1140
2017-07-28T06:10:55.534Z,1145
2017-07-28T06:11:55.533Z,1150
2017-07-28T06:12:55.564Z,1160
2017-07-28T06:13:55.555Z,1190
2017-07-28T06:14:55.575Z,1205
2017-07-28T06:15:55.552Z,1220
2017-07-28T06:16:55.599Z,1240
2017-07-28T06:17:55.313Z,1250
2017-07-28T06:18:55.629Z,1255
2017-07-28T06:19:54.994Z,1265
2017-07-28T06:20:55.650Z,1270
2017-07-28T06:21:55.671Z,1280
2017-07-28T06:22:55.678Z,1290
2017-07-28T06:23:55.674Z,1295
2017-07-28T06:24:55.706Z,1330
2017-07-28T06:25:55.403Z,1345
2017-07-28T06:26:55.734Z,1345
2017-07-28T06:27:55.745Z,1360
2017-07-28T06:28:55.432Z,1335
2017-07-28T06:29:55.748Z,1355
2017-07-28T06:30:55.775Z,1360
2017-07-28T06:31:55.451Z,1355
2017-07-28T06:32:55.804Z,1380
2017-07-28T06:33:55.790Z,1390
2017-07-28T06:34:55.527Z,1405
2017-07-28T06:35:55.224Z,1420
2017-07-28T06:36:55.880Z,1430
2017-07-28T06:37:55.864Z,1435
2017-07-28T06:38:55.583Z,1465
2017-07-28T06:39:55.889Z,1500
2017-07-28T06:40:55.905Z,1500
2017-07-28T06:41:55.932Z,1505
2017-07-28T06:42:55.939Z,1505
2017-07-28T06:43:55.041Z,1515
2017-07-28T06:44:55.653Z,1515
2017-07-28T06:45:55.998Z,1535
2017-07-28T06:46:55.979Z,1555
2017-07-28T06:47:55.731Z,1570
2017-07-28T06:48:55.711Z,1605
2017-07-28T06:49:56.067Z,1645
2017-07-28T06:50:56.067Z,1660
2017-07-28T06:51:55.775Z,1685
2017-07-28T06:52:55.481Z,1675
2017-07-28T06:53:58.415Z,1705
2017-07-28T06:54:56.132Z,1720
2017-07-28T06:55:56.136Z,1740
2017-07-28T06:56:56.139Z,1745
2017-07-28T06:57:55.881Z,1765
2017-07-28T06:58:56.182Z,1765
2017-07-28T06:59:56.216Z,1775
2017-07-28T07:00:56.199Z,1775
2017-07-28T07:01:56.224Z,1780
2017-07-28T07:02:55.933Z,1780
2017-07-28T07:03:55.969Z,1785
2017-07-28T07:04:55.955Z,1810
2017-07-28T07:05:55.994Z,1830
2017-07-28T07:06:56.329Z,1850
2017-07-28T07:07:56.051Z,1850
2017-07-28T07:08:56.341Z,1880
2017-07-28T07:09:56.385Z,1900
2017-07-28T07:10:56.382Z,1915
2017-07-28T07:11:56.413Z,1920
2017-07-28T07:12:56.428Z,1970
2017-07-28T07:13:56.429Z,1975
2017-07-28T07:14:55.829Z,2000
2017-07-28T07:15:56.447Z,1995
2017-07-28T07:16:56.506Z,2025
2017-07-28T07:17:56.494Z,2045
2017-07-28T07:18:56.529Z,2045
2017-07-28T07:19:56.216Z,2060
2017-07-28T07:20:56.593Z,2065
2017-07-28T07:21:56.825Z,2015
2017-07-28T07:22:56.584Z,1935
2017-07-28T07:23:56.610Z,1920
2017-07-28T07:24:56.598Z,1910
2017-07-28T07:25:56.617Z,1935
2017-07-28T07:26:56.332Z,1950
2017-07-28T07:27:56.394Z,1955
2017-07-28T07:28:56.709Z,1985
2017-07-28T07:29:56.701Z,1990
2017-07-28T07:30:56.725Z,2005
2017-07-28T07:31:56.747Z,2010
2017-07-28T07:32:56.463Z,2020
2017-07-28T07:33:56.151Z,2030
2017-07-28T07:34:56.494Z,2045
2017-07-28T07:35:56.504Z,2045
2017-07-28T07:36:56.824Z,2045
2017-07-28T07:37:56.859Z,2085
2017-07-28T07:38:56.581Z,2115
2017-07-28T07:39:56.577Z,2135
2017-07-28T07:40:56.882Z,2125
2017-07-28T07:41:56.913Z,2050
2017-07-28T07:42:56.614Z,1900
2017-07-28T07:43:56.641Z,1810
2017-07-28T07:44:56.674Z,1815
2017-07-28T07:45:56.675Z,1830
2017-07-28T07:46:56.700Z,1850
2017-07-28T07:47:57.284Z,1860
2017-07-28T07:48:56.731Z,1880
2017-07-28T07:50:56.754Z,1925
2017-07-28T07:51:56.769Z,1960
2017-07-28T07:52:57.117Z,2025
2017-07-28T07:53:56.825Z,2060
2017-07-28T07:54:56.847Z,2125
2017-07-28T07:55:56.845Z,2185
2017-07-28T07:56:57.199Z,2225
2017-07-28T07:57:56.873Z,2210
2017-07-28T07:58:57.223Z,2190
2017-07-28T07:59:57.927Z,2170
2017-07-28T08:00:57.269Z,2160
2017-07-28T08:01:56.958Z,2160
2017-07-28T08:02:57.311Z,2360
2017-07-28T08:03:56.997Z,2720
2017-07-28T08:04:57.316Z,3035
2017-07-28T08:05:57.023Z,3095
2017-07-28T08:06:57.066Z,3240
2017-07-28T08:07:57.393Z,3275
2017-07-28T08:08:57.077Z,3340
2017-07-28T08:09:57.412Z,3305
2017-07-28T08:10:57.425Z,3315
2017-07-28T08:11:57.469Z,3280
2017-07-28T08:12:57.465Z,3255
2017-07-28T08:13:57.164Z,3225
2017-07-28T08:14:56.889Z,3210
2017-07-28T08:15:57.503Z,3215
2017-07-28T08:16:58.524Z,3230
2017-07-28T08:17:56.938Z,3190
2017-07-28T08:18:56.975Z,3105
2017-07-28T08:19:57.296Z,3060
2017-07-28T08:20:57.004Z,2880
2017-07-28T08:21:57.026Z,2345
2017-07-28T08:22:57.363Z,2090
2017-07-28T08:23:57.693Z,2070
2017-07-28T08:24:57.391Z,2080
2017-07-28T08:25:57.718Z,2085
2017-07-28T08:26:57.720Z,2100
2017-07-28T08:27:57.770Z,2095
2017-07-28T08:28:57.752Z,2110
2017-07-28T08:29:57.498Z,2120
2017-07-28T08:30:57.829Z,2110
2017-07-28T08:31:57.535Z,2105
2017-07-28T08:32:57.830Z,2095
2017-07-28T08:33:57.572Z,2100
2017-07-28T08:34:57.582Z,2095
2017-07-28T08:35:57.614Z,2105
2017-07-28T08:36:57.626Z,2105
2017-07-28T08:37:57.310Z,2120
2017-07-28T08:38:57.937Z,2115
2017-07-28T08:39:57.661Z,2115
2017-07-28T08:40:57.962Z,2115
2017-07-28T08:41:58.005Z,2120
2017-07-28T08:42:58.003Z,2115
2017-07-28T08:43:57.729Z,2115
2017-07-28T08:44:58.051Z,2125
2017-07-28T08:45:58.082Z,2125
2017-07-28T08:46:58.082Z,2095
2017-07-28T08:47:57.802Z,2130
2017-07-28T08:48:58.099Z,2160
2017-07-28T08:49:58.129Z,2115
2017-07-28T08:50:57.518Z,2095
2017-07-28T08:51:57.860Z,2155
2017-07-28T08:52:58.196Z,1475
2017-07-28T08:53:58.195Z,540
2017-07-28T08:54:58.205Z,325
2017-07-28T08:55:58.199Z,325
2017-07-28T08:56:58.267Z,345
2017-07-28T08:57:58.252Z,335
2017-07-28T08:58:58.270Z,320
2017-07-28T08:59:58.288Z,305
2017-07-28T09:00:57.981Z,305
2017-07-28T09:01:57.996Z,305
2017-07-28T09:03:00.312Z,330
2017-07-28T09:03:58.344Z,325
2017-07-28T09:04:58.025Z,345
2017-07-28T09:05:58.335Z,365
2017-07-28T09:06:58.040Z,370
2017-07-28T09:07:58.040Z,375
2017-07-28T09:08:58.397Z,355
2017-07-28T09:09:58.409Z,335
2017-07-28T09:10:58.402Z,330
2017-07-28T09:11:58.380Z,345
2017-07-28T09:12:58.426Z,350
2017-07-28T09:13:58.407Z,355
2017-07-28T09:14:58.136Z,350
2017-07-28T09:15:58.429Z,350
2017-07-28T09:16:58.442Z,360
2017-07-28T09:17:58.438Z,375
2017-07-28T09:18:58.481Z,380
2017-07-28T09:19:58.458Z,390
2017-07-28T09:20:58.153Z,375
2017-07-28T09:21:58.503Z,355
2017-07-28T09:22:58.195Z,345
2017-07-28T09:23:58.496Z,350
2017-07-28T09:24:58.189Z,410
2017-07-28T09:25:58.510Z,495
2017-07-28T09:26:58.495Z,535
2017-07-28T09:27:58.521Z,535
2017-07-28T09:28:58.194Z,525
2017-07-28T09:29:58.210Z,470
2017-07-28T09:30:58.219Z,400
2017-07-28T09:31:58.516Z,350
2017-07-28T09:32:58.231Z,345
2017-07-28T09:33:58.201Z,350
2017-07-28T09:34:58.545Z,375
2017-07-28T09:35:58.244Z,415
2017-07-28T09:36:58.548Z,435
2017-07-28T09:37:58.255Z,410
2017-07-28T09:38:58.568Z,385
2017-07-28T09:39:58.250Z,345
2017-07-28T09:40:58.242Z,315
2017-07-28T09:41:58.886Z,300
2017-07-28T09:42:58.270Z,290
2017-07-28T09:43:58.592Z,295
2017-07-28T09:44:58.607Z,300
2017-07-28T09:45:58.595Z,300
2017-07-28T09:46:58.582Z,295
2017-07-28T09:47:58.603Z,300
2017-07-28T09:48:58.302Z,305
2017-07-28T09:49:58.605Z,320
2017-07-28T09:50:58.607Z,330
2017-07-28T09:51:58.599Z,350
2017-07-28T09:52:58.595Z,355
2017-07-28T09:53:58.603Z,360
2017-07-28T09:54:58.631Z,395
2017-07-28T09:55:58.608Z,420
2017-07-28T09:56:58.600Z,420
2017-07-28T09:57:58.651Z,405
2017-07-28T09:58:58.647Z,405
2017-07-28T09:59:58.652Z,420
2017-07-28T10:00:58.325Z,475
2017-07-28T10:01:58.045Z,480
2017-07-28T10:02:58.333Z,410
2017-07-28T10:03:58.670Z,385
2017-07-28T10:04:58.332Z,445
2017-07-28T10:05:58.674Z,570
2017-07-28T10:06:58.347Z,650
2017-07-28T10:07:58.346Z,605
2017-07-28T10:08:58.372Z,560
2017-07-28T10:09:58.367Z,610
2017-07-28T10:10:58.687Z,600
2017-07-28T10:11:58.679Z,605
2017-07-28T10:12:58.846Z,575
2017-07-28T10:13:58.692Z,495
2017-07-28T10:14:58.382Z,425
2017-07-28T10:15:58.725Z,380
2017-07-28T10:16:58.412Z,365
2017-07-28T10:17:58.710Z,370
2017-07-28T10:18:58.729Z,400
2017-07-28T10:19:58.416Z,405
2017-07-28T10:20:58.729Z,455
2017-07-28T10:21:58.739Z,495
2017-07-28T10:22:58.423Z,470
2017-07-28T10:23:58.734Z,450
2017-07-28T10:24:58.729Z,460
2017-07-28T10:25:58.434Z,455
2017-07-28T10:26:58.457Z,450
2017-07-28T10:27:58.450Z,435
2017-07-28T10:28:58.465Z,410
2017-07-28T10:29:58.746Z,380
2017-07-28T10:30:58.166Z,365
2017-07-28T10:31:58.151Z,350
2017-07-28T10:32:58.776Z,345
2017-07-28T10:33:58.748Z,345
2017-07-28T10:34:58.793Z,340
2017-07-28T10:35:58.802Z,365
2017-07-28T10:36:58.804Z,420
2017-07-28T10:37:58.777Z,465
2017-07-28T10:38:58.804Z,475
2017-07-28T10:39:58.508Z,470
2017-07-28T10:40:58.810Z,435
2017-07-28T10:41:58.532Z,435
2017-07-28T10:42:58.837Z,430
2017-07-28T10:43:57.901Z,405
2017-07-28T10:44:59.160Z,415
2017-07-28T10:45:58.552Z,455
2017-07-28T10:46:58.834Z,490
2017-07-28T10:47:58.854Z,530
2017-07-28T10:48:58.855Z,605
2017-07-28T10:49:58.840Z,665
2017-07-28T10:50:58.559Z,720
2017-07-28T10:51:58.556Z,755
2017-07-28T10:52:58.861Z,750
2017-07-28T10:53:58.865Z,740
2017-07-28T10:54:58.873Z,770
2017-07-28T10:55:58.879Z,760
2017-07-28T10:56:58.891Z,680
2017-07-28T10:57:58.607Z,660
2017-07-28T10:58:58.873Z,665
2017-07-28T10:59:58.880Z,610
2017-07-28T11:00:58.297Z,565
2017-07-28T11:01:58.899Z,545
2017-07-28T11:02:58.906Z,540
2017-07-28T11:03:58.607Z,550
2017-07-28T11:04:58.928Z,575
2017-07-28T11:05:58.904Z,605
2017-07-28T11:06:58.947Z,620
2017-07-28T11:07:58.930Z,640
2017-07-28T11:08:58.966Z,655
2017-07-28T11:09:58.926Z,685
2017-07-28T11:10:58.981Z,700
2017-07-28T11:11:58.965Z,695
2017-07-28T11:12:58.984Z,695
2017-07-28T11:13:58.965Z,680
2017-07-28T11:14:58.675Z,695
2017-07-28T11:15:59.091Z,710
2017-07-28T11:16:58.700Z,720
2017-07-28T11:17:58.976Z,740
2017-07-28T11:18:58.713Z,745
2017-07-28T11:19:58.992Z,735
2017-07-28T11:20:59.020Z,700
2017-07-28T11:21:58.989Z,660
2017-07-28T11:22:59.034Z,640
2017-07-28T11:23:59.022Z,655
2017-07-28T11:24:58.757Z,660
2017-07-28T11:25:58.722Z,655
2017-07-28T11:26:58.726Z,625
2017-07-28T11:27:59.048Z,590
2017-07-28T11:28:59.070Z,555
2017-07-28T11:29:59.090Z,565
2017-07-28T11:30:59.075Z,605
2017-07-28T11:31:59.060Z,645
2017-07-28T11:32:59.077Z,675
2017-07-28T11:33:59.109Z,700
2017-07-28T11:34:59.092Z,720
2017-07-28T11:35:59.127Z,730
2017-07-28T11:36:59.093Z,735
2017-07-28T11:37:59.126Z,740
2017-07-28T11:38:59.121Z,750
2017-07-28T11:39:58.820Z,770
2017-07-28T11:40:59.147Z,790
2017-07-28T11:41:59.120Z,800
2017-07-28T11:42:59.147Z,800
2017-07-28T11:43:58.840Z,790
2017-07-28T11:44:59.158Z,790
2017-07-28T11:45:59.181Z,800
2017-07-28T11:46:58.855Z,800
2017-07-28T11:47:58.847Z,795
2017-07-28T11:48:58.840Z,785
2017-07-28T11:49:58.881Z,765
2017-07-28T11:50:58.880Z,750
2017-07-28T11:51:58.884Z,740
2017-07-28T11:52:58.911Z,720
2017-07-28T11:53:58.901Z,715
2017-07-28T11:54:58.892Z,710
2017-07-28T11:55:58.917Z,705
2017-07-28T11:56:58.900Z,700
2017-07-28T11:57:58.951Z,695
2017-07-28T11:58:58.929Z,680
2017-07-28T11:59:59.242Z,675
2017-07-28T12:00:58.929Z,680
2017-07-28T12:01:58.958Z,690
2017-07-28T12:02:58.970Z,540
2017-07-28T12:03:59.666Z,570
2017-07-28T12:04:58.976Z,575
2017-07-28T12:05:59.286Z,650
2017-07-28T12:06:58.987Z,755
2017-07-28T12:07:59.014Z,800
2017-07-28T12:08:59.004Z,825
2017-07-28T12:09:59.006Z,855
2017-07-28T12:10:59.305Z,875
2017-07-28T12:11:59.337Z,875
2017-07-28T12:12:59.331Z,875
2017-07-28T12:13:59.366Z,825
2017-07-28T12:14:59.039Z,740
2017-07-28T12:15:59.339Z,660
2017-07-28T12:16:59.346Z,610
2017-07-28T12:17:59.366Z,565
2017-07-28T12:18:59.381Z,525
2017-07-28T12:19:59.070Z,495
2017-07-28T12:20:59.095Z,465
2017-07-28T12:21:59.099Z,450
2017-07-28T12:22:59.394Z,440
2017-07-28T12:23:59.400Z,420
2017-07-28T12:24:59.398Z,415
2017-07-28T12:25:59.103Z,440
2017-07-28T12:26:59.453Z,535
2017-07-28T12:27:59.050Z,575
2017-07-28T12:28:59.140Z,590
2017-07-28T12:29:59.427Z,575
2017-07-28T12:31:01.839Z,575
2017-07-28T12:31:58.840Z,580
2017-07-28T12:32:59.168Z,555
2017-07-28T12:33:59.142Z,540
2017-07-28T12:34:59.177Z,490
2017-07-28T12:35:59.173Z,435
2017-07-28T12:36:59.192Z,425
2017-07-28T12:37:58.874Z,435
2017-07-28T12:38:59.209Z,465
2017-07-28T12:39:59.491Z,500
2017-07-28T12:40:59.199Z,570
2017-07-28T12:41:59.204Z,610
2017-07-28T12:42:59.544Z,650
2017-07-28T12:43:59.540Z,645
2017-07-28T12:44:59.225Z,620
2017-07-28T12:45:59.543Z,600
2017-07-28T12:46:59.550Z,610
2017-07-28T12:47:59.258Z,625
2017-07-28T12:48:59.563Z,630
2017-07-28T12:49:59.586Z,630
2017-07-28T12:50:59.271Z,630
2017-07-28T12:51:59.281Z,625
2017-07-28T12:52:59.586Z,650
2017-07-28T12:53:59.588Z,720
2017-07-28T12:54:59.569Z,745
2017-07-28T12:55:59.598Z,740
2017-07-28T12:56:59.618Z,730
2017-07-28T12:57:59.324Z,710
2017-07-28T12:58:59.310Z,665
2017-07-28T12:59:59.330Z,655
2017-07-28T13:00:59.319Z,670
2017-07-28T13:01:59.329Z,685
2017-07-28T13:02:59.675Z,675
2017-07-28T13:03:59.342Z,645
2017-07-28T13:04:59.340Z,610
2017-07-28T13:05:59.681Z,590
2017-07-28T13:06:59.340Z,580
2017-07-28T13:07:59.369Z,580
2017-07-28T13:08:59.350Z,570
2017-07-28T13:09:59.383Z,560
2017-07-28T13:10:59.694Z,560
2017-07-28T13:11:59.388Z,570
2017-07-28T13:12:59.403Z,570
2017-07-28T13:13:59.724Z,605
2017-07-28T13:14:59.728Z,625
2017-07-28T13:15:59.404Z,645
2017-07-28T13:16:59.424Z,680
2017-07-28T13:17:59.432Z,690
2017-07-28T13:18:59.140Z,675
2017-07-28T13:19:59.759Z,630
2017-07-28T13:20:59.744Z,595
2017-07-28T13:21:59.763Z,580
2017-07-28T13:22:59.448Z,575
2017-07-28T13:23:59.476Z,580
2017-07-28T13:24:59.797Z,600
2017-07-28T13:25:59.772Z,625
2017-07-28T13:26:59.778Z,685
2017-07-28T13:27:59.815Z,685
2017-07-28T13:28:59.504Z,610
2017-07-28T13:29:59.200Z,535
2017-07-28T13:30:59.497Z,470
2017-07-28T13:31:59.818Z,430
2017-07-28T13:32:59.822Z,400
2017-07-28T13:33:59.812Z,380
2017-07-28T13:34:59.856Z,365
2017-07-28T13:35:59.830Z,355
2017-07-28T13:36:59.535Z,340
2017-07-28T13:37:59.855Z,345
2017-07-28T13:38:59.559Z,345
2017-07-28T13:39:59.870Z,375
2017-07-28T13:40:59.878Z,385
2017-07-28T13:41:59.867Z,375
2017-07-28T13:42:59.905Z,360
2017-07-28T13:43:59.563Z,355
2017-07-28T13:44:59.905Z,350
2017-07-28T13:45:59.899Z,355
2017-07-28T13:46:59.922Z,370
2017-07-28T13:47:59.911Z,415
2017-07-28T13:48:59.925Z,400
2017-07-28T13:49:59.921Z,345
2017-07-28T13:50:59.937Z,330
2017-07-28T13:51:59.301Z,330
2017-07-28T13:52:59.632Z,320
2017-07-28T13:53:59.294Z,315
2017-07-28T13:54:59.950Z,305
2017-07-28T13:55:59.937Z,275
2017-07-28T13:56:59.970Z,250